createdAt,value
2018-02-16T00:01:35.528Z,4.50
2018-02-16T00:04:03.852Z,4.60
2018-02-16T00:06:31.381Z,4.60
2018-02-16T00:08:58.916Z,4.50
2018-02-16T00:11:26.475Z,4.50
2018-02-16T00:13:54.039Z,4.50
2018-02-16T00:16:21.637Z,4.50
2018-02-16T00:18:49.203Z,4.60
2018-02-16T00:21:17.536Z,4.60
2018-02-16T00:23:45.109Z,4.60
2018-02-16T00:26:12.672Z,4.70
2018-02-16T00:28:40.214Z,4.70
2018-02-16T00:31:07.776Z,4.70
2018-02-16T00:33:36.699Z,4.70
2018-02-16T00:36:05.372Z,4.70
2018-02-16T00:38:33.740Z,4.70
2018-02-16T00:41:01.470Z,4.70
2018-02-16T00:43:29.826Z,4.80
2018-02-16T00:45:57.383Z,4.80
2018-02-16T00:48:24.921Z,4.90
2018-02-16T00:50:52.476Z,4.90
2018-02-16T00:53:20.011Z,4.90
2018-02-16T00:55:47.591Z,4.90
2018-02-16T00:58:15.156Z,4.90
2018-02-16T01:00:42.712Z,4.90
2018-02-16T01:03:10.442Z,4.90
2018-02-16T01:05:37.986Z,4.90
2018-02-16T01:08:05.940Z,4.90
2018-02-16T01:10:34.240Z,4.90
2018-02-16T01:13:01.804Z,4.90
2018-02-16T01:15:30.124Z,4.90
2018-02-16T01:17:57.687Z,4.90
2018-02-16T01:20:25.226Z,4.90
2018-02-16T01:22:53.553Z,4.90
2018-02-16T01:25:21.099Z,4.80
2018-02-16T01:27:49.420Z,4.90
2018-02-16T01:30:17.045Z,4.90
2018-02-16T01:32:45.373Z,4.90
2018-02-16T01:35:12.912Z,4.90
2018-02-16T01:37:40.466Z,5.00
2018-02-16T01:40:08.009Z,5.00
2018-02-16T01:42:35.567Z,5.00
2018-02-16T01:45:03.109Z,5.10
2018-02-16T01:47:30.665Z,5.10
2018-02-16T01:50:07.142Z,5.10
2018-02-16T01:52:34.705Z,5.10
2018-02-16T01:55:02.245Z,5.20
2018-02-16T01:57:29.810Z,5.20
2018-02-16T01:59:57.355Z,5.20
2018-02-16T02:02:24.915Z,5.10
2018-02-16T02:04:53.231Z,5.10
2018-02-16T02:07:20.815Z,5.10
2018-02-16T02:09:48.361Z,5.00
2018-02-16T02:12:15.899Z,5.10
2018-02-16T02:14:43.469Z,5.10
2018-02-16T02:17:11.010Z,5.00
2018-02-16T02:19:38.563Z,5.00
2018-02-16T02:22:06.104Z,5.10
2018-02-16T02:24:34.434Z,5.00
2018-02-16T02:27:01.988Z,5.00
2018-02-16T02:29:29.539Z,5.00
2018-02-16T02:31:57.853Z,5.00
2018-02-16T02:34:25.442Z,5.00
2018-02-16T02:36:52.979Z,5.00
2018-02-16T02:39:21.301Z,5.10
2018-02-16T02:41:48.842Z,5.10
2018-02-16T02:44:17.182Z,5.00
2018-02-16T02:46:44.720Z,5.00
2018-02-16T02:49:12.305Z,5.00
2018-02-16T02:51:39.843Z,5.00
2018-02-16T02:54:08.189Z,4.90
2018-02-16T02:56:35.728Z,4.90
2018-02-16T02:59:03.293Z,5.00
2018-02-16T03:01:31.606Z,5.00
2018-02-16T03:03:59.183Z,5.00
2018-02-16T03:06:32.684Z,5.00
2018-02-16T03:09:00.243Z,5.00
2018-02-16T03:11:27.787Z,5.00
2018-02-16T03:13:55.384Z,5.00
2018-02-16T03:16:22.902Z,5.00
2018-02-16T03:18:50.457Z,5.00
2018-02-16T03:21:17.996Z,5.00
2018-02-16T03:23:45.563Z,4.90
2018-02-16T03:26:13.878Z,5.00
2018-02-16T03:28:41.422Z,5.00
2018-02-16T03:31:09.758Z,5.00
2018-02-16T03:33:37.315Z,5.00
2018-02-16T03:36:04.878Z,5.00
2018-02-16T03:38:32.425Z,5.00
2018-02-16T03:41:00.751Z,5.10
2018-02-16T03:43:28.297Z,5.00
2018-02-16T03:45:55.855Z,5.00
2018-02-16T03:48:24.160Z,5.00
2018-02-16T03:50:52.485Z,4.90
2018-02-16T03:53:20.029Z,4.90
2018-02-16T03:55:47.586Z,5.00
2018-02-16T03:58:15.884Z,5.00
2018-02-16T04:00:43.450Z,5.00
2018-02-16T04:03:12.174Z,5.00
2018-02-16T04:05:39.742Z,5.00
2018-02-16T04:08:07.290Z,5.00
2018-02-16T04:10:34.852Z,5.00
2018-02-16T04:13:03.153Z,5.00
2018-02-16T04:15:31.482Z,5.10
2018-02-16T04:17:59.020Z,5.00
2018-02-16T04:20:26.584Z,5.00
2018-02-16T04:22:54.891Z,5.00
2018-02-16T04:25:22.461Z,4.90
2018-02-16T04:27:50.009Z,5.00
2018-02-16T04:30:18.351Z,4.90
2018-02-16T04:32:45.887Z,4.90
2018-02-16T04:35:13.452Z,4.90
2018-02-16T04:37:41.755Z,4.90
2018-02-16T04:40:10.406Z,4.90
2018-02-16T04:42:37.975Z,4.90
2018-02-16T04:45:05.530Z,4.90
2018-02-16T04:47:33.081Z,5.00
2018-02-16T04:50:00.614Z,4.90
2018-02-16T04:52:28.175Z,4.90
2018-02-16T04:54:55.725Z,4.90
2018-02-16T04:57:23.295Z,4.80
2018-02-16T04:59:50.840Z,4.90
2018-02-16T05:02:18.396Z,4.90
2018-02-16T05:04:45.942Z,4.90
2018-02-16T05:07:13.508Z,4.90
2018-02-16T05:09:41.051Z,4.80
2018-02-16T05:12:08.616Z,4.80
2018-02-16T05:14:36.153Z,4.80
2018-02-16T05:17:04.479Z,4.70
2018-02-16T05:19:32.026Z,4.70
2018-02-16T05:21:59.596Z,4.70
2018-02-16T05:24:27.152Z,4.80
2018-02-16T05:26:55.487Z,4.80
2018-02-16T05:29:23.040Z,4.80
2018-02-16T05:31:50.612Z,4.80
2018-02-16T05:34:18.153Z,4.80
2018-02-16T05:36:46.573Z,4.70
2018-02-16T05:39:14.125Z,4.70
2018-02-16T05:41:42.451Z,4.70
2018-02-16T05:44:10.005Z,4.70
2018-02-16T05:46:37.716Z,4.70
2018-02-16T05:49:05.341Z,4.70
2018-02-16T05:51:32.915Z,4.70
2018-02-16T05:54:00.474Z,4.70
2018-02-16T05:56:28.801Z,4.60
2018-02-16T05:58:56.361Z,4.60
2018-02-16T06:01:23.896Z,4.60
2018-02-16T06:03:51.453Z,4.60
2018-02-16T06:06:18.989Z,4.60
2018-02-16T06:08:46.566Z,4.60
2018-02-16T06:11:14.115Z,4.60
2018-02-16T06:13:41.697Z,4.60
2018-02-16T06:16:09.236Z,4.60
2018-02-16T06:18:37.555Z,4.70
2018-02-16T06:21:05.096Z,4.60
2018-02-16T06:23:33.474Z,4.60
2018-02-16T06:26:01.031Z,4.60
2018-02-16T06:28:28.586Z,4.60
2018-02-16T06:30:56.128Z,4.60
2018-02-16T06:33:23.736Z,4.60
2018-02-16T06:35:51.290Z,4.60
2018-02-16T06:38:18.858Z,4.60
2018-02-16T06:40:46.415Z,4.60
2018-02-16T06:43:13.998Z,4.60
2018-02-16T06:45:41.533Z,4.60
2018-02-16T06:48:09.106Z,4.60
2018-02-16T06:50:36.674Z,4.70
2018-02-16T06:53:04.227Z,4.70
2018-02-16T06:55:31.865Z,4.70
2018-02-16T06:57:59.390Z,4.70
2018-02-16T07:00:26.952Z,4.70
2018-02-16T07:02:54.478Z,4.80
2018-02-16T07:05:22.965Z,4.80
2018-02-16T07:07:50.509Z,4.80
2018-02-16T07:10:18.824Z,4.90
2018-02-16T07:12:46.361Z,4.90
2018-02-16T07:15:13.931Z,5.00
2018-02-16T07:17:41.476Z,4.90
2018-02-16T07:20:09.053Z,5.00
2018-02-16T07:22:36.606Z,5.00
2018-02-16T07:25:04.172Z,5.00
2018-02-16T07:27:31.715Z,5.00
2018-02-16T07:29:59.272Z,5.00
2018-02-16T07:32:27.587Z,5.10
2018-02-16T07:34:55.162Z,5.10
2018-02-16T07:37:22.717Z,5.20
2018-02-16T07:39:50.277Z,5.20
2018-02-16T07:42:18.573Z,5.20
2018-02-16T07:44:46.903Z,5.20
2018-02-16T07:47:14.439Z,5.20
2018-02-16T07:49:42.046Z,5.20
2018-02-16T07:52:09.581Z,5.30
2018-02-16T07:54:37.156Z,5.30
2018-02-16T07:57:05.463Z,5.40
2018-02-16T07:59:33.029Z,5.30
2018-02-16T08:02:00.579Z,5.30
2018-02-16T08:04:28.907Z,5.40
2018-02-16T08:06:56.516Z,5.40
2018-02-16T08:09:24.095Z,5.40
2018-02-16T08:11:51.644Z,5.50
2018-02-16T08:14:19.180Z,5.50
2018-02-16T08:16:46.749Z,5.50
2018-02-16T08:19:14.309Z,5.50
2018-02-16T08:21:41.893Z,5.60
2018-02-16T08:24:09.439Z,5.60
2018-02-16T08:26:36.993Z,5.60
2018-02-16T08:29:04.543Z,5.70
2018-02-16T08:31:32.117Z,5.70
2018-02-16T08:33:59.838Z,5.90
2018-02-16T08:36:28.167Z,5.90
2018-02-16T08:38:55.915Z,5.90
2018-02-16T08:41:24.250Z,6.00
2018-02-16T08:43:51.828Z,6.00
2018-02-16T08:46:19.429Z,6.10
2018-02-16T08:48:46.972Z,6.10
2018-02-16T08:51:14.534Z,6.20
2018-02-16T08:53:42.092Z,6.30
2018-02-16T08:56:09.667Z,6.50
2018-02-16T08:58:37.203Z,6.40
2018-02-16T09:01:05.535Z,6.40
2018-02-16T09:03:33.081Z,6.40
2018-02-16T09:06:00.646Z,6.50
2018-02-16T09:08:28.936Z,6.70
2018-02-16T09:10:57.285Z,6.90
2018-02-16T09:13:24.816Z,6.90
2018-02-16T09:15:52.404Z,7.10
2018-02-16T09:18:19.937Z,7.20
2018-02-16T09:20:48.250Z,7.10
2018-02-16T09:23:15.826Z,7.00
2018-02-16T09:25:43.379Z,7.00
2018-02-16T09:28:11.765Z,7.20
2018-02-16T09:30:39.284Z,7.10
2018-02-16T09:33:06.831Z,7.10
2018-02-16T09:35:34.512Z,7.00
2018-02-16T09:38:02.080Z,6.90
2018-02-16T09:40:29.628Z,7.00
2018-02-16T09:42:58.769Z,7.20
2018-02-16T09:45:26.316Z,7.20
2018-02-16T09:47:53.904Z,7.10
2018-02-16T09:50:21.441Z,7.10
2018-02-16T09:52:48.996Z,7.20
2018-02-16T09:55:16.540Z,7.20
2018-02-16T09:57:44.119Z,7.20
2018-02-16T10:00:11.673Z,7.30
2018-02-16T10:02:39.273Z,7.50
2018-02-16T10:05:06.810Z,7.60
2018-02-16T10:07:34.369Z,7.40
2018-02-16T10:10:01.916Z,7.40
2018-02-16T10:12:30.275Z,7.30
2018-02-16T10:14:57.869Z,7.30
2018-02-16T10:17:25.447Z,7.30
2018-02-16T10:19:53.755Z,7.40
2018-02-16T10:22:22.085Z,7.50
2018-02-16T10:24:49.630Z,7.50
2018-02-16T10:27:17.173Z,7.50
2018-02-16T10:29:45.518Z,7.50
2018-02-16T10:32:13.102Z,7.50
2018-02-16T10:34:40.899Z,7.40
2018-02-16T10:37:08.448Z,7.40
2018-02-16T10:39:36.035Z,7.30
2018-02-16T10:42:03.587Z,7.20
2018-02-16T10:44:31.180Z,7.30
2018-02-16T10:46:58.756Z,7.30
2018-02-16T10:49:26.381Z,7.30
2018-02-16T10:51:53.931Z,7.40
2018-02-16T10:54:22.259Z,7.60
2018-02-16T10:56:49.798Z,7.60
2018-02-16T10:59:18.173Z,7.90
2018-02-16T11:01:45.759Z,7.90
2018-02-16T11:04:19.839Z,8.10
2018-02-16T11:06:49.329Z,8.10
2018-02-16T11:09:20.818Z,8.30
2018-02-16T11:11:48.364Z,8.20
2018-02-16T11:14:15.937Z,8.00
2018-02-16T11:16:43.495Z,7.80
2018-02-16T11:19:11.085Z,7.60
2018-02-16T11:21:38.642Z,7.60
2018-02-16T11:24:06.967Z,7.60
2018-02-16T11:26:34.494Z,7.60
2018-02-16T11:29:02.057Z,7.50
2018-02-16T11:31:29.599Z,7.60
2018-02-16T11:33:57.181Z,7.50
2018-02-16T11:36:24.732Z,7.70
2018-02-16T11:38:52.279Z,7.70
2018-02-16T11:41:19.868Z,7.70
2018-02-16T11:43:47.402Z,7.90
2018-02-16T11:46:14.976Z,7.90
2018-02-16T11:48:42.882Z,7.80
2018-02-16T11:51:10.434Z,7.80
2018-02-16T11:53:37.987Z,7.70
2018-02-16T11:56:06.348Z,7.80
2018-02-16T11:58:33.904Z,7.80
2018-02-16T12:01:01.469Z,7.90
2018-02-16T12:03:29.105Z,7.90
2018-02-16T12:05:56.675Z,8.00
2018-02-16T12:08:24.214Z,8.10
2018-02-16T12:10:51.774Z,8.30
2018-02-16T12:13:19.321Z,8.50
2018-02-16T12:15:49.051Z,8.40
2018-02-16T12:18:16.598Z,8.40
2018-02-16T12:20:44.180Z,8.70
2018-02-16T12:23:11.760Z,8.70
2018-02-16T12:25:39.316Z,8.90
2018-02-16T12:28:06.864Z,9.10
2018-02-16T12:30:35.200Z,9.30
2018-02-16T12:33:02.736Z,9.30
2018-02-16T12:35:30.302Z,9.30
2018-02-16T12:37:58.608Z,9.90
2018-02-16T12:40:26.169Z,9.80
2018-02-16T12:42:54.468Z,10.40
2018-02-16T12:45:22.085Z,10.40
2018-02-16T12:47:49.644Z,10.50
2018-02-16T12:50:17.222Z,10.20
2018-02-16T12:52:44.764Z,9.60
2018-02-16T12:55:12.358Z,9.30
2018-02-16T12:57:39.930Z,8.90
2018-02-16T13:00:07.488Z,8.90
2018-02-16T13:02:35.054Z,8.70
2018-02-16T13:05:02.611Z,8.70
2018-02-16T13:07:30.181Z,8.80
2018-02-16T13:09:57.721Z,8.80
2018-02-16T13:12:25.288Z,8.80
2018-02-16T13:14:52.844Z,8.80
2018-02-16T13:17:20.418Z,8.60
2018-02-16T13:19:47.980Z,8.60
2018-02-16T13:22:15.552Z,8.50
2018-02-16T13:24:43.103Z,8.40
2018-02-16T13:27:10.680Z,8.30
2018-02-16T13:29:38.236Z,8.10
2018-02-16T13:32:05.799Z,8.10
2018-02-16T13:34:34.131Z,7.80
2018-02-16T13:37:02.488Z,7.90
2018-02-16T13:39:30.028Z,7.80
2018-02-16T13:41:57.592Z,8.00
2018-02-16T13:44:25.135Z,8.10
2018-02-16T13:46:52.718Z,8.10
2018-02-16T13:49:20.349Z,8.20
2018-02-16T13:51:47.932Z,8.30
2018-02-16T13:54:15.501Z,8.30
2018-02-16T13:56:43.076Z,8.30
2018-02-16T13:59:10.643Z,8.40
2018-02-16T14:01:38.233Z,8.50
2018-02-16T14:04:05.775Z,8.60
2018-02-16T14:06:34.111Z,8.60
2018-02-16T14:09:01.666Z,8.70
2018-02-16T14:11:29.223Z,8.70
2018-02-16T14:13:56.809Z,8.90
2018-02-16T14:16:24.358Z,9.00
2018-02-16T14:18:51.976Z,9.10
2018-02-16T14:21:19.570Z,9.10
2018-02-16T14:23:47.148Z,9.40
2018-02-16T14:26:15.471Z,9.90
2018-02-16T14:28:43.057Z,9.90
2018-02-16T14:31:10.594Z,10.00
2018-02-16T14:33:38.953Z,10.00
2018-02-16T14:36:06.525Z,10.00
2018-02-16T14:38:34.088Z,9.70
2018-02-16T14:41:01.647Z,9.50
2018-02-16T14:43:29.259Z,9.30
2018-02-16T14:45:56.801Z,9.10
2018-02-16T14:48:24.371Z,9.00
2018-02-16T14:50:51.908Z,8.90
2018-02-16T14:53:19.477Z,8.80
2018-02-16T14:55:47.789Z,8.50
2018-02-16T14:58:15.359Z,8.40
2018-02-16T15:00:42.920Z,8.50
2018-02-16T15:03:10.490Z,8.40
2018-02-16T15:05:38.045Z,8.30
2018-02-16T15:08:06.392Z,8.20
2018-02-16T15:10:33.933Z,8.10
2018-02-16T15:13:01.493Z,8.10
2018-02-16T15:15:29.796Z,8.00
2018-02-16T15:17:57.368Z,8.00
2018-02-16T15:20:24.945Z,8.00
2018-02-16T15:22:52.513Z,8.10
2018-02-16T15:25:20.132Z,8.00
2018-02-16T15:27:47.686Z,8.00
2018-02-16T15:30:15.282Z,8.00
2018-02-16T15:32:42.840Z,8.00
2018-02-16T15:35:10.399Z,7.90
2018-02-16T15:37:37.992Z,7.90
2018-02-16T15:40:05.624Z,7.90
2018-02-16T15:42:33.188Z,7.90
2018-02-16T15:45:00.777Z,7.90
2018-02-16T15:47:28.961Z,7.80
2018-02-16T15:49:56.592Z,7.80
2018-02-16T15:52:24.160Z,7.70
2018-02-16T15:54:51.738Z,7.50
2018-02-16T15:57:20.239Z,7.50
2018-02-16T15:59:48.590Z,7.40
2018-02-16T16:02:16.152Z,7.40
2018-02-16T16:04:43.732Z,7.20
2018-02-16T16:07:11.294Z,7.10
2018-02-16T16:09:38.895Z,7.10
2018-02-16T16:12:07.248Z,7.00
2018-02-16T16:14:34.816Z,7.00
2018-02-16T16:17:02.387Z,7.10
2018-02-16T16:19:29.984Z,6.90
2018-02-16T16:21:57.553Z,6.80
2018-02-16T16:24:25.166Z,6.80
2018-02-16T16:26:52.767Z,6.70
2018-02-16T16:29:20.353Z,6.70
2018-02-16T16:31:47.973Z,6.60
2018-02-16T16:34:15.529Z,6.40
2018-02-16T16:36:43.142Z,6.30
2018-02-16T16:39:10.707Z,6.20
2018-02-16T16:41:38.275Z,6.10
2018-02-16T16:44:05.813Z,6.10
2018-02-16T16:46:33.383Z,6.00
2018-02-16T16:49:00.947Z,5.90
2018-02-16T16:51:28.536Z,5.80
2018-02-16T16:53:56.085Z,5.80
2018-02-16T16:56:23.652Z,5.70
2018-02-16T16:58:51.255Z,5.70
2018-02-16T17:01:18.822Z,5.70
2018-02-16T17:03:46.382Z,5.70
2018-02-16T17:06:13.961Z,5.70
2018-02-16T17:08:41.525Z,5.60
2018-02-16T17:11:09.084Z,5.50
2018-02-16T17:13:36.621Z,5.40
2018-02-16T17:16:04.957Z,5.30
2018-02-16T17:18:32.507Z,5.30
2018-02-16T17:21:00.090Z,5.30
2018-02-16T17:23:27.647Z,5.30
2018-02-16T17:25:55.230Z,5.20
2018-02-16T17:28:22.773Z,5.10
2018-02-16T17:30:50.430Z,5.10
2018-02-16T17:33:18.719Z,5.00
2018-02-16T17:35:46.280Z,5.00
2018-02-16T17:38:13.832Z,5.00
2018-02-16T17:40:41.402Z,4.90
2018-02-16T17:43:08.959Z,4.80
2018-02-16T17:45:36.517Z,4.80
2018-02-16T17:48:04.073Z,4.80
2018-02-16T17:50:32.369Z,4.70
2018-02-16T17:52:59.999Z,4.70
2018-02-16T17:55:27.761Z,4.70
2018-02-16T17:57:55.333Z,4.70
2018-02-16T18:00:22.864Z,4.70
2018-02-16T18:02:51.192Z,4.70
2018-02-16T18:05:18.769Z,4.70
2018-02-16T18:07:46.354Z,4.70
2018-02-16T18:10:13.902Z,4.70
2018-02-16T18:12:41.468Z,4.60
2018-02-16T18:15:09.016Z,4.70
2018-02-16T18:17:37.346Z,4.70
2018-02-16T18:20:04.901Z,4.70
2018-02-16T18:22:32.459Z,4.70
2018-02-16T18:25:00.026Z,4.60
2018-02-16T18:27:27.601Z,4.60
2018-02-16T18:29:55.148Z,4.70
2018-02-16T18:32:22.734Z,4.70
2018-02-16T18:34:50.301Z,4.60
2018-02-16T18:37:18.628Z,4.70
2018-02-16T18:39:46.189Z,4.70
2018-02-16T18:42:13.741Z,4.60
2018-02-16T18:44:42.067Z,4.50
2018-02-16T18:47:09.602Z,4.50
2018-02-16T18:49:37.943Z,4.40
2018-02-16T18:52:05.503Z,4.40
2018-02-16T18:54:33.077Z,4.40
2018-02-16T18:57:00.641Z,4.40
2018-02-16T18:59:28.242Z,4.30
2018-02-16T19:01:55.812Z,4.20
2018-02-16T19:04:23.383Z,4.20
2018-02-16T19:06:50.922Z,4.20
2018-02-16T19:09:18.561Z,4.20
2018-02-16T19:11:46.996Z,4.10
2018-02-16T19:14:14.586Z,4.10
2018-02-16T19:16:42.131Z,4.20
2018-02-16T19:19:09.861Z,4.10
2018-02-16T19:21:38.208Z,3.90
2018-02-16T19:24:05.775Z,3.80
2018-02-16T19:26:33.322Z,3.80
2018-02-16T19:29:01.701Z,3.70
2018-02-16T19:31:29.252Z,3.70
2018-02-16T19:33:56.805Z,3.70
2018-02-16T19:36:24.348Z,3.70
2018-02-16T19:38:51.913Z,3.70
2018-02-16T19:41:20.547Z,3.70
2018-02-16T19:43:48.528Z,3.70
2018-02-16T19:46:22.864Z,3.70
2018-02-16T19:48:50.875Z,3.60
2018-02-16T19:51:18.505Z,3.60
2018-02-16T19:53:46.083Z,3.50
2018-02-16T19:56:13.629Z,3.40
2018-02-16T19:58:41.201Z,3.30
2018-02-16T20:01:09.333Z,3.20
2018-02-16T20:03:36.997Z,3.20
2018-02-16T20:06:04.986Z,3.20
2018-02-16T20:08:32.584Z,3.10
2018-02-16T20:11:00.433Z,3.10
2018-02-16T20:13:28.381Z,3.00
2018-02-16T20:15:56.500Z,3.00
2018-02-16T20:18:24.128Z,3.00
2018-02-16T20:20:52.741Z,3.10
2018-02-16T20:23:20.372Z,3.00
2018-02-16T20:25:47.923Z,3.00
2018-02-16T20:28:15.467Z,2.90
2018-02-16T20:30:43.023Z,2.90
2018-02-16T20:33:10.570Z,3.10
2018-02-16T20:35:38.150Z,3.20
2018-02-16T20:38:06.471Z,3.10
2018-02-16T20:40:34.023Z,3.10
2018-02-16T20:43:02.489Z,3.00
2018-02-16T20:45:30.041Z,3.00
2018-02-16T20:47:57.577Z,2.90
2018-02-16T20:50:25.143Z,2.80
2018-02-16T20:52:52.700Z,2.80
2018-02-16T20:55:20.265Z,2.80
2018-02-16T20:57:47.829Z,2.70
2018-02-16T21:00:15.399Z,2.70
2018-02-16T21:02:42.962Z,2.70
2018-02-16T21:05:10.553Z,2.60
2018-02-16T21:07:38.156Z,2.50
2018-02-16T21:10:05.708Z,2.40
2018-02-16T21:12:33.307Z,2.40
2018-02-16T21:15:00.875Z,2.40
2018-02-16T21:17:28.447Z,2.40
2018-02-16T21:19:56.020Z,2.30
2018-02-16T21:22:23.605Z,2.20
2018-02-16T21:24:51.994Z,2.20
2018-02-16T21:27:19.558Z,2.20
2018-02-16T21:29:47.100Z,2.10
2018-02-16T21:32:15.616Z,2.00
2018-02-16T21:34:43.174Z,2.00
2018-02-16T21:37:11.493Z,2.00
2018-02-16T21:39:39.065Z,2.00
2018-02-16T21:42:06.621Z,1.90
2018-02-16T21:44:34.183Z,1.80
2018-02-16T21:47:02.497Z,1.90
2018-02-16T21:49:30.050Z,1.90
2018-02-16T21:51:57.615Z,1.90
2018-02-16T21:54:25.131Z,1.80
2018-02-16T21:56:52.707Z,1.80
2018-02-16T21:59:20.245Z,1.80
2018-02-16T22:01:47.781Z,1.80
2018-02-16T22:04:15.337Z,1.90
2018-02-16T22:06:42.861Z,1.80
2018-02-16T22:09:10.461Z,1.70
2018-02-16T22:11:38.035Z,1.60
2018-02-16T22:14:05.585Z,1.70
2018-02-16T22:16:33.112Z,1.70
2018-02-16T22:19:00.683Z,1.60
2018-02-16T22:21:28.208Z,1.50
2018-02-16T22:23:55.774Z,1.40
2018-02-16T22:26:23.338Z,1.40
2018-02-16T22:28:50.886Z,1.50
2018-02-16T22:31:19.182Z,1.50
2018-02-16T22:33:46.756Z,1.50
2018-02-16T22:36:15.081Z,1.40
2018-02-16T22:38:42.643Z,1.40
2018-02-16T22:41:10.193Z,1.40
2018-02-16T22:43:38.551Z,1.40
2018-02-16T22:46:06.132Z,1.40
2018-02-16T22:48:33.689Z,1.40
2018-02-16T22:51:01.711Z,1.30
2018-02-16T22:53:29.284Z,1.30
2018-02-16T22:55:57.600Z,1.20
2018-02-16T22:58:25.189Z,1.20
2018-02-16T23:00:52.746Z,1.10
2018-02-16T23:03:20.283Z,1.10
2018-02-16T23:05:48.623Z,1.00
2018-02-16T23:08:16.167Z,1.00
2018-02-16T23:10:43.740Z,1.00
2018-02-16T23:13:11.315Z,0.90
2018-02-16T23:15:38.898Z,0.90
2018-02-16T23:18:06.443Z,0.90
2018-02-16T23:20:34.775Z,1.00
2018-02-16T23:23:02.332Z,1.00
2018-02-16T23:25:29.877Z,0.90
2018-02-16T23:27:58.227Z,0.90
2018-02-16T23:30:25.781Z,0.90
2018-02-16T23:32:53.318Z,1.00
2018-02-16T23:35:21.629Z,1.10
2018-02-16T23:37:49.176Z,1.10
2018-02-16T23:40:17.490Z,1.10
2018-02-16T23:42:44.982Z,1.10
2018-02-16T23:45:13.362Z,1.10
2018-02-16T23:47:40.888Z,1.10
2018-02-16T23:50:08.456Z,1.00
2018-02-16T23:52:35.969Z,0.90
2018-02-16T23:55:03.529Z,0.90
2018-02-16T23:57:31.075Z,0.80
2018-02-16T23:59:58.701Z,0.90
